Time;durP1;ratioP1;P1;durP2;ratioP2;P2;SDS_P1;SDS_P2;PMS_P1;PMS_P2;Temp;Humidity;BMP_temperature;BMP_pressure;BME280_temperature;BME280_humidity;BME280_pressure;Samples;Min_cycle;Max_cycle;Signal;HPM_P1;HPM_P2
2023/08/03 00:01:47;;;;;;;13.30;3.80;;;;;;;28.98;36.82;97538.02;67606;1281;1016274;-67
2023/08/03 00:04:50;;;;;;;13.20;3.90;;;;;;;28.95;37.02;97533.05;67623;1281;1016504;-63
2023/08/03 00:07:52;;;;;;;11.70;3.60;;;;;;;29.03;36.77;97530.23;67629;1280;1016661;-64
2023/08/03 00:10:55;;;;;;;9.90;3.10;;;;;;;29.06;36.90;97527.73;67635;1281;1016479;-63
2023/08/03 00:13:57;;;;;;;12.50;3.30;;;;;;;29.05;36.86;97522.80;67648;1281;1016492;-63
2023/08/03 00:16:59;;;;;;;11.70;3.40;;;;;;;28.94;37.02;97519.45;67609;1281;1016302;-63
2023/08/03 00:20:03;;;;;;;11.10;3.20;;;;;;;28.86;37.19;97519.20;67607;1281;1018834;-63
2023/08/03 00:23:06;;;;;;;11.40;3.30;;;;;;;28.91;37.01;97516.16;67551;1281;1016356;-63
2023/08/03 00:26:08;;;;;;;11.50;3.10;;;;;;;28.81;37.16;97523.12;67662;1281;1016483;-63
2023/08/03 00:29:11;;;;;;;10.10;2.80;;;;;;;28.74;37.47;97513.92;67615;1281;1016477;-65
2023/08/03 00:32:13;;;;;;;12.00;3.20;;;;;;;28.54;37.66;97518.08;67622;1281;1016119;-64
2023/08/03 00:35:15;;;;;;;12.10;3.40;;;;;;;28.42;37.89;97516.28;67641;1281;1016413;-63
2023/08/03 00:38:18;;;;;;;12.90;3.20;;;;;;;28.52;37.76;97515.07;67610;1281;1016129;-64
2023/08/03 00:41:20;;;;;;;9.40;3.00;;;;;;;28.47;37.81;97520.86;67628;1281;1016486;-65
2023/08/03 00:44:22;;;;;;;10.40;3.10;;;;;;;28.48;37.93;97523.41;67669;1281;1016292;-63
2023/08/03 00:47:25;;;;;;;11.10;3.20;;;;;;;28.53;38.08;97523.71;67650;1281;1016249;-65
2023/08/03 00:50:27;;;;;;;11.40;3.20;;;;;;;28.81;37.55;97523.65;67650;1281;1016480;-64
2023/08/03 00:53:30;;;;;;;9.20;2.80;;;;;;;28.77;37.61;97526.88;67641;1281;1015911;-63
2023/08/03 00:56:32;;;;;;;10.00;3.10;;;;;;;28.73;37.58;97527.61;67607;1281;1016397;-64
2023/08/03 00:59:34;;;;;;;12.60;3.10;;;;;;;28.77;37.53;97532.39;67638;1280;1016576;-63
2023/08/03 01:02:37;;;;;;;11.30;3.20;;;;;;;28.73;37.58;97532.19;67654;1281;1019182;-65
2023/08/03 01:05:39;;;;;;;11.50;2.80;;;;;;;28.76;37.60;97531.00;67667;1281;1016484;-65
2023/08/03 01:08:42;;;;;;;11.20;3.10;;;;;;;28.79;37.80;97535.16;67616;1281;1016382;-65
2023/08/03 01:11:44;;;;;;;9.90;3.20;;;;;;;28.84;37.66;97533.80;67625;1281;1018552;-64
2023/08/03 01:14:46;;;;;;;10.10;2.80;;;;;;;28.89;37.61;97529.84;67615;1280;1016353;-64
2023/08/03 01:17:49;;;;;;;11.70;3.20;;;;;;;28.87;37.53;97528.78;67641;1281;1016226;-64
2023/08/03 01:20:51;;;;;;;10.80;3.10;;;;;;;28.99;37.46;97528.01;67657;1281;1016373;-66
2023/08/03 01:23:53;;;;;;;11.50;3.00;;;;;;;28.97;37.71;97527.38;67605;1281;1016354;-64
2023/08/03 01:26:56;;;;;;;14.10;3.10;;;;;;;28.92;37.54;97530.42;67634;1281;1017201;-64
2023/08/03 01:29:58;;;;;;;10.30;2.80;;;;;;;28.98;37.78;97524.80;67634;1281;1015699;-64
2023/08/03 01:33:01;;;;;;;12.90;2.80;;;;;;;28.99;37.57;97520.77;67623;1281;1016494;-64
2023/08/03 01:36:03;;;;;;;10.30;2.90;;;;;;;29.05;37.58;97522.05;67655;1281;1018300;-65
2023/08/03 01:39:05;;;;;;;12.20;2.90;;;;;;;28.84;37.90;97523.80;67626;1281;1016306;-64
2023/08/03 01:42:08;;;;;;;9.80;2.70;;;;;;;28.77;38.05;97523.58;67663;1281;1016378;-66
2023/08/03 01:45:10;;;;;;;10.70;2.80;;;;;;;28.79;38.24;97517.63;67628;1281;1016500;-64
2023/08/03 01:48:13;;;;;;;10.50;2.80;;;;;;;28.93;37.96;97504.48;67623;1281;1016435;-63
2023/08/03 01:51:15;;;;;;;9.90;2.80;;;;;;;28.99;37.73;97495.89;67594;1281;1016449;-63
2023/08/03 01:54:17;;;;;;;8.00;2.70;;;;;;;29.06;37.60;97498.11;67674;1281;1016294;-63
2023/08/03 01:57:20;;;;;;;10.80;2.80;;;;;;;29.17;37.62;97493.41;67606;1281;1015711;-63
2023/08/03 02:00:24;;;;;;;9.80;2.90;;;;;;;29.08;37.68;97521.56;67639;1281;1018706;-63
2023/08/03 02:03:26;;;;;;;10.50;2.90;;;;;;;28.93;37.98;97521.52;67634;1281;1016277;-63
2023/08/03 02:06:28;;;;;;;10.60;2.80;;;;;;;28.95;37.92;97530.57;67614;1280;1016397;-63
2023/08/03 02:09:31;;;;;;;8.10;2.70;;;;;;;28.95;38.16;97540.55;67609;1281;1016508;-63
2023/08/03 02:12:33;;;;;;;11.20;2.90;;;;;;;28.93;38.27;97546.47;67644;1281;1016453;-63
2023/08/03 02:15:38;;;;;;;12.60;3.00;;;;;;;28.90;38.08;97548.04;67651;1280;1016482;-65
2023/08/03 02:18:40;;;;;;;10.20;2.80;;;;;;;28.92;38.28;97555.24;67608;1281;1016164;-65
2023/08/03 02:21:43;;;;;;;13.10;3.20;;;;;;;28.89;38.23;97554.33;67574;1281;1015963;-64
2023/08/03 02:24:45;;;;;;;13.40;3.10;;;;;;;28.78;38.69;97552.73;67587;1281;1016365;-63
2023/08/03 02:27:48;;;;;;;11.60;3.10;;;;;;;28.83;38.63;97548.56;67653;1281;1017492;-63
2023/08/03 02:30:50;;;;;;;10.40;3.00;;;;;;;28.91;38.49;97547.25;67651;1267;1016498;-64
2023/08/03 02:33:53;;;;;;;13.20;3.20;;;;;;;28.95;38.31;97554.23;67571;1281;1016478;-63
2023/08/03 02:36:55;;;;;;;12.30;3.40;;;;;;;28.96;38.50;97560.17;67643;1281;1016382;-63
2023/08/03 02:39:57;;;;;;;14.60;3.10;;;;;;;28.88;38.73;97551.18;67639;1281;1016501;-63
2023/08/03 02:43:00;;;;;;;8.20;2.60;;;;;;;28.77;38.84;97558.83;67642;1281;1016211;-63
2023/08/03 02:46:02;;;;;;;9.40;2.80;;;;;;;28.82;38.65;97562.95;67668;1281;1016412;-63
2023/08/03 02:49:05;;;;;;;9.70;2.70;;;;;;;29.06;38.43;97571.84;67643;1281;1016471;-64
2023/08/03 02:52:07;;;;;;;10.10;2.80;;;;;;;28.91;38.88;97562.29;67628;1281;1016394;-63
2023/08/03 02:55:10;;;;;;;10.50;2.80;;;;;;;28.74;39.02;97568.19;67640;1281;1016905;-63
2023/08/03 02:58:12;;;;;;;10.50;3.00;;;;;;;28.66;39.07;97573.21;67575;1281;1016228;-63
2023/08/03 03:01:16;;;;;;;11.10;2.70;;;;;;;28.57;39.32;97574.98;67647;1281;1016390;-63
2023/08/03 03:04:18;;;;;;;9.70;2.90;;;;;;;28.60;39.42;97572.71;67673;1281;1016271;-63
2023/08/03 03:07:21;;;;;;;11.30;2.80;;;;;;;28.65;39.40;97567.67;67658;1281;1018294;-63
2023/08/03 03:10:23;;;;;;;12.80;3.10;;;;;;;28.51;39.63;97570.11;67641;1281;1016945;-63
2023/08/03 03:13:26;;;;;;;10.40;2.90;;;;;;;28.39;39.80;97567.07;67639;1281;1016223;-63
2023/08/03 03:16:28;;;;;;;10.80;2.90;;;;;;;28.48;39.79;97561.00;67657;1281;1016474;-63
2023/08/03 03:19:30;;;;;;;9.60;2.70;;;;;;;28.58;39.60;97554.23;67625;1281;1016980;-63
2023/08/03 03:22:33;;;;;;;10.70;2.90;;;;;;;28.64;39.67;97556.84;67620;1281;1019243;-63
2023/08/03 03:25:35;;;;;;;9.40;2.80;;;;;;;28.61;39.72;97546.79;67605;1281;1016372;-63
2023/08/03 03:28:37;;;;;;;9.10;2.90;;;;;;;28.50;39.92;97543.45;67633;1281;1016334;-65
2023/08/03 03:31:40;;;;;;;10.10;2.90;;;;;;;28.42;40.07;97543.20;67634;1281;1016619;-63
2023/08/03 03:34:43;;;;;;;11.20;3.00;;;;;;;28.54;40.09;97518.19;67568;1281;1017274;-63
2023/08/03 03:37:45;;;;;;;11.50;3.00;;;;;;;28.60;40.01;97517.39;67644;1281;1016478;-63
2023/08/03 03:40:48;;;;;;;12.10;2.90;;;;;;;28.45;40.23;97534.40;67657;1281;1018037;-63
2023/08/03 03:43:50;;;;;;;10.80;3.30;;;;;;;28.65;40.16;97530.69;67664;1281;1018864;-63
2023/08/03 03:46:52;;;;;;;10.40;2.70;;;;;;;28.76;40.16;97560.52;67639;1281;1016135;-65
2023/08/03 03:49:55;;;;;;;8.70;2.90;;;;;;;28.91;40.15;97543.35;67673;1281;1016080;-64
2023/08/03 03:52:58;;;;;;;10.80;2.90;;;;;;;28.73;40.77;97507.21;67660;1281;1016412;-63
2023/08/03 03:56:01;;;;;;;13.20;3.30;;;;;;;28.76;40.67;97516.92;67660;1281;1016344;-63
2023/08/03 03:59:03;;;;;;;11.00;3.10;;;;;;;28.41;41.50;97524.19;67652;1281;1018839;-63
2023/08/03 04:02:05;;;;;;;12.90;3.00;;;;;;;28.30;41.63;97559.62;67851;1281;1019864;-63
2023/08/03 04:05:08;;;;;;;11.40;2.90;;;;;;;28.37;41.66;97573.59;67626;1281;1016176;-63
2023/08/03 04:08:10;;;;;;;11.90;3.20;;;;;;;28.24;41.99;97577.99;67606;1281;1016498;-63
2023/08/03 04:11:13;;;;;;;11.00;3.20;;;;;;;28.27;42.03;97584.77;67623;1281;1016328;-63
2023/08/03 04:14:15;;;;;;;10.60;3.00;;;;;;;28.39;41.86;97584.37;67645;1281;1016612;-63
2023/08/03 04:17:18;;;;;;;8.70;2.80;;;;;;;28.33;42.25;97590.63;67614;1281;1016421;-63
2023/08/03 04:20:20;;;;;;;13.50;3.50;;;;;;;28.27;42.64;97593.20;67635;1281;1016633;-64
2023/08/03 04:23:22;;;;;;;15.10;3.80;;;;;;;28.19;42.94;97606.02;67617;1281;1016386;-64
2023/08/03 04:26:25;;;;;;;15.70;3.70;;;;;;;28.47;42.65;97604.13;67567;1281;1016156;-63
2023/08/03 04:29:27;;;;;;;12.70;3.30;;;;;;;28.60;42.60;97598.07;67638;1281;1016453;-63
2023/08/03 04:32:30;;;;;;;11.90;3.20;;;;;;;28.56;42.91;97605.64;67678;1281;1016301;-63
2023/08/03 04:35:32;;;;;;;14.30;3.70;;;;;;;28.46;43.22;97598.96;67644;1281;1017254;-63
2023/08/03 04:38:34;;;;;;;17.40;3.80;;;;;;;28.24;44.08;97598.15;67607;1281;1016051;-63
2023/08/03 04:41:37;;;;;;;12.50;3.30;;;;;;;28.26;44.24;97584.13;67625;1281;1016460;-63
2023/08/03 04:44:39;;;;;;;15.70;3.30;;;;;;;28.26;44.73;97571.66;67625;1281;1018061;-63
2023/08/03 04:47:41;;;;;;;12.50;3.50;;;;;;;28.35;44.73;97553.42;67674;1281;1016520;-63
2023/08/03 04:50:44;;;;;;;10.60;2.70;;;;;;;28.42;44.92;97534.95;67643;1281;1016518;-63
2023/08/03 04:53:46;;;;;;;10.00;2.80;;;;;;;28.42;45.42;97532.79;67639;1281;1016474;-63
2023/08/03 04:56:49;;;;;;;14.20;3.30;;;;;;;28.62;45.45;97552.38;67643;1281;1016779;-63
2023/08/03 04:59:51;;;;;;;13.70;3.50;;;;;;;28.80;45.18;97562.33;67650;1281;1016693;-63
2023/08/03 05:02:53;;;;;;;12.10;3.10;;;;;;;28.76;45.48;97570.02;67680;1281;1016403;-63
2023/08/03 05:05:56;;;;;;;13.10;3.40;;;;;;;28.93;45.51;97578.89;67673;1281;1018977;-63
2023/08/03 05:08:58;;;;;;;8.80;2.70;;;;;;;28.93;45.93;97593.59;67550;1281;1016183;-63
2023/08/03 05:12:01;;;;;;;8.00;2.60;;;;;;;29.00;45.90;97604.55;67607;1281;1016448;-63
2023/08/03 05:15:03;;;;;;;11.20;2.70;;;;;;;29.02;45.77;97600.86;67605;1281;1018948;-63
2023/08/03 05:18:05;;;;;;;8.50;2.90;;;;;;;29.04;45.72;97596.36;67670;1281;1016371;-63
2023/08/03 05:21:08;;;;;;;10.40;3.40;;;;;;;29.17;45.40;97600.96;67635;1280;1016423;-63
2023/08/03 05:24:10;;;;;;;15.80;3.70;;;;;;;29.17;45.63;97603.79;67640;1281;1016351;-63
2023/08/03 05:27:13;;;;;;;15.00;3.20;;;;;;;29.00;46.31;97599.59;67628;1257;1016296;-63
2023/08/03 05:30:15;;;;;;;11.70;3.40;;;;;;;28.91;46.89;97597.91;67597;1281;1017703;-63
2023/08/03 05:33:17;;;;;;;9.80;3.00;;;;;;;28.95;47.00;97621.46;67656;1281;1016368;-63
2023/08/03 05:36:20;;;;;;;9.70;2.90;;;;;;;29.09;46.77;97629.05;67697;1281;1016188;-63
2023/08/03 05:39:22;;;;;;;8.20;2.80;;;;;;;29.24;46.45;97639.33;67630;1281;1016386;-63
2023/08/03 05:42:25;;;;;;;13.50;3.70;;;;;;;29.36;46.48;97652.13;67634;1281;1016111;-63
2023/08/03 05:45:27;;;;;;;11.30;3.20;;;;;;;29.45;46.38;97650.88;67626;1281;1016447;-63
2023/08/03 05:48:29;;;;;;;8.30;2.70;;;;;;;29.31;46.32;97647.66;67640;1281;1016159;-63
2023/08/03 05:51:32;;;;;;;11.60;2.80;;;;;;;29.38;46.45;97649.78;67651;1281;1016318;-63
2023/08/03 05:54:34;;;;;;;9.80;2.80;;;;;;;29.42;46.02;97641.21;67675;1281;1016539;-63
2023/08/03 05:57:37;;;;;;;10.90;3.20;;;;;;;29.45;46.26;97637.55;67684;1281;1016321;-63
2023/08/03 06:00:39;;;;;;;10.60;3.00;;;;;;;29.41;46.36;97651.89;67617;1281;1017186;-63
2023/08/03 06:03:41;;;;;;;8.40;2.70;;;;;;;29.33;46.38;97664.30;67621;1281;1016424;-63
2023/08/03 06:06:44;;;;;;;7.10;2.40;;;;;;;29.18;46.77;97681.05;67663;1280;1016765;-63
2023/08/03 06:09:46;;;;;;;11.50;3.10;;;;;;;29.18;46.90;97670.69;67665;1281;1016693;-63
2023/08/03 06:12:48;;;;;;;9.90;3.00;;;;;;;29.17;47.09;97672.95;67655;1280;1016170;-63
2023/08/03 06:15:51;;;;;;;10.50;3.10;;;;;;;29.24;46.87;97662.92;67648;1281;1016609;-63
2023/08/03 06:18:53;;;;;;;8.00;2.60;;;;;;;29.38;46.54;97667.22;67620;1280;1017005;-63
2023/08/03 06:21:56;;;;;;;9.60;2.70;;;;;;;29.37;46.39;97677.75;67576;1281;1016084;-63
2023/08/03 06:24:58;;;;;;;8.80;2.70;;;;;;;29.33;46.78;97679.55;67586;1280;1016499;-62
2023/08/03 06:28:00;;;;;;;11.50;3.10;;;;;;;29.47;46.54;97679.05;67658;1281;1016648;-62
2023/08/03 06:31:04;;;;;;;9.10;2.70;;;;;;;29.70;46.14;97677.86;67668;1280;1016486;-59
2023/08/03 06:34:07;;;;;;;7.10;2.40;;;;;;;29.86;46.00;97690.20;67614;1281;1016793;-59
2023/08/03 06:37:09;;;;;;;7.90;2.60;;;;;;;30.00;45.54;97706.79;67674;1281;1016411;-59
2023/08/03 06:40:12;;;;;;;12.10;3.10;;;;;;;30.06;45.23;97708.88;67652;1281;1018168;-58
2023/08/03 06:43:15;;;;;;;11.40;2.90;;;;;;;30.18;45.41;97710.14;67688;1281;1017595;-59
2023/08/03 06:46:17;;;;;;;11.70;2.80;;;;;;;30.18;44.94;97708.08;67674;1281;1016437;-59
2023/08/03 06:49:20;;;;;;;11.70;3.00;;;;;;;30.07;45.39;97715.98;67584;1281;1016676;-61
2023/08/03 06:52:22;;;;;;;8.90;2.90;;;;;;;30.14;45.21;97711.27;67619;1281;1016394;-61
2023/08/03 06:55:24;;;;;;;12.10;2.70;;;;;;;30.07;45.22;97707.17;67669;1281;1016467;-60
2023/08/03 06:58:27;;;;;;;12.40;3.20;;;;;;;29.89;45.67;97711.96;67662;1281;1016486;-61
2023/08/03 07:01:29;;;;;;;14.40;3.40;;;;;;;30.04;45.73;97719.61;67671;1281;1016065;-61
2023/08/03 07:04:32;;;;;;;9.00;2.80;;;;;;;30.14;45.58;97723.39;67631;1281;1015982;-60
2023/08/03 07:07:35;;;;;;;9.80;3.00;;;;;;;30.25;45.65;97720.20;67665;1281;1016368;-60
2023/08/03 07:10:37;;;;;;;11.80;2.80;;;;;;;30.41;45.31;97722.45;67657;1281;1016429;-60
2023/08/03 07:13:39;;;;;;;18.40;3.30;;;;;;;30.43;44.70;97711.48;67644;1281;1016539;-59
2023/08/03 07:16:42;;;;;;;8.50;2.80;;;;;;;30.49;44.13;97707.36;67611;1281;1016488;-59
2023/08/03 07:19:45;;;;;;;9.20;2.70;;;;;;;30.44;44.42;97705.86;67675;1281;1016781;-59
2023/08/03 07:22:48;;;;;;;9.90;3.00;;;;;;;30.57;44.26;97723.59;67645;1281;1016483;-59
2023/08/03 07:25:51;;;;;;;14.10;4.00;;;;;;;30.53;44.07;97737.77;67649;1280;1016501;-59
2023/08/03 07:28:54;;;;;;;;;;;;;;;30.51;44.33;97758.14;65547;1281;5390132;-59
2023/08/03 07:31:56;;;;;;;15.90;4.60;;;;;;;30.44;44.27;97777.39;67585;1281;1016238;-62
2023/08/03 07:34:59;;;;;;;13.60;3.50;;;;;;;30.39;44.49;97779.85;67643;1281;1016431;-60
2023/08/03 07:38:01;;;;;;;14.60;3.10;;;;;;;30.33;44.53;97786.14;67672;1281;1017443;-63
2023/08/03 07:41:04;;;;;;;11.80;3.30;;;;;;;30.39;44.48;97792.73;67614;1281;1016423;-62
2023/08/03 07:44:06;;;;;;;18.90;4.00;;;;;;;29.99;45.04;97797.86;67578;1281;1016482;-62
2023/08/03 07:47:09;;;;;;;12.20;3.40;;;;;;;30.03;45.23;97826.31;67534;1281;1016537;-62
2023/08/03 07:50:11;;;;;;;13.10;3.30;;;;;;;30.15;44.76;97840.52;67577;1281;1016166;-61
2023/08/03 07:53:14;;;;;;;11.90;3.20;;;;;;;30.07;44.92;97829.30;67637;1281;1016382;-62
2023/08/03 07:56:16;;;;;;;12.70;3.60;;;;;;;29.74;45.81;97813.25;67614;1281;1017580;-62
2023/08/03 07:59:19;;;;;;;17.40;3.80;;;;;;;29.90;45.38;97814.24;67627;1281;1016391;-61
2023/08/03 08:02:21;;;;;;;14.70;3.30;;;;;;;29.95;45.35;97819.64;67649;1281;1016273;-62
2023/08/03 08:05:24;;;;;;;10.90;3.20;;;;;;;29.97;45.52;97838.48;67634;1281;1016301;-62
2023/08/03 08:08:27;;;;;;;13.20;3.20;;;;;;;29.82;45.89;97851.88;67616;1281;1016251;-62
2023/08/03 08:11:31;;;;;;;11.00;3.20;;;;;;;29.51;46.24;97841.23;67673;1281;1016401;-62
2023/08/03 08:14:33;;;;;;;10.30;3.20;;;;;;;29.39;46.72;97820.74;67629;1281;1016503;-62
2023/08/03 08:17:36;;;;;;;11.90;3.40;;;;;;;29.49;46.73;97808.73;67596;1281;1016429;-60
2023/08/03 08:20:39;;;;;;;11.50;3.20;;;;;;;29.57;46.72;97807.89;67610;1281;1016784;-61
2023/08/03 08:23:42;;;;;;;10.80;3.00;;;;;;;29.73;46.66;97803.19;67647;1280;1015971;-63
2023/08/03 08:26:44;;;;;;;15.40;3.60;;;;;;;30.14;45.81;97792.00;67642;1281;1016388;-62
2023/08/03 08:29:47;;;;;;;13.00;3.60;;;;;;;30.27;45.96;97787.92;67594;1281;1016370;-62
2023/08/03 08:32:49;;;;;;;11.10;3.70;;;;;;;30.43;45.90;97791.77;67664;1281;1016477;-62
2023/08/03 08:35:52;;;;;;;12.50;4.00;;;;;;;30.42;45.96;97797.65;67666;1281;1016468;-61
2023/08/03 08:38:55;;;;;;;13.40;3.90;;;;;;;30.56;45.78;97790.02;67604;1280;1016621;-62
2023/08/03 08:41:58;;;;;;;14.00;3.80;;;;;;;30.65;45.48;97790.30;67631;1281;1016516;-62
2023/08/03 08:45:00;;;;;;;11.60;3.20;;;;;;;30.61;45.62;97795.94;67612;1281;1016192;-62
2023/08/03 08:48:03;;;;;;;9.70;3.30;;;;;;;30.58;45.43;97795.79;67594;1280;1016192;-62
2023/08/03 08:51:06;;;;;;;14.60;3.70;;;;;;;30.61;45.38;97787.77;67612;1281;1016134;-62
2023/08/03 08:54:09;;;;;;;11.60;3.30;;;;;;;30.73;45.08;97781.44;67619;1281;1015927;-61
2023/08/03 08:57:11;;;;;;;11.00;3.20;;;;;;;30.68;44.93;97786.84;67590;1281;1016020;-62
2023/08/03 09:00:14;;;;;;;10.30;3.00;;;;;;;30.65;45.04;97794.75;67533;1281;1018844;-62
2023/08/03 09:03:16;;;;;;;10.00;2.80;;;;;;;30.62;45.17;97808.28;67537;1281;1016367;-59
2023/08/03 09:06:20;;;;;;;12.30;3.40;;;;;;;30.43;45.65;97829.51;67577;1280;1016448;-62
2023/08/03 09:09:23;;;;;;;10.30;3.30;;;;;;;30.61;45.24;97822.08;67621;1281;1016072;-63
2023/08/03 09:12:25;;;;;;;13.10;3.70;;;;;;;30.70;45.14;97830.87;67648;1280;1016139;-62
2023/08/03 09:15:28;;;;;;;11.00;3.40;;;;;;;30.73;44.88;97848.38;67644;1281;1016460;-63
2023/08/03 09:18:31;;;;;;;11.80;3.20;;;;;;;30.64;44.80;97850.09;67522;1281;1019542;-63
2023/08/03 09:21:34;;;;;;;9.80;3.00;;;;;;;30.57;44.38;97847.33;67550;1281;1016592;-63
2023/08/03 09:24:36;;;;;;;11.90;3.10;;;;;;;30.33;44.53;97834.20;67482;1281;1017389;-63
2023/08/03 09:27:38;;;;;;;10.70;2.90;;;;;;;30.19;44.66;97815.66;67514;1281;1017343;-63
2023/08/03 09:30:41;;;;;;;10.90;2.70;;;;;;;30.18;44.15;97799.33;67570;1281;1019214;-63
2023/08/03 09:33:44;;;;;;;11.10;3.10;;;;;;;30.13;43.97;97786.37;67616;1281;1016273;-63
2023/08/03 09:36:46;;;;;;;9.60;2.80;;;;;;;30.16;44.03;97794.76;67594;1281;1016243;-63
2023/08/03 09:39:48;;;;;;;13.10;2.80;;;;;;;30.26;43.65;97791.21;67534;1280;1016235;-63
2023/08/03 09:42:51;;;;;;;11.20;2.90;;;;;;;30.41;43.79;97797.95;67576;1281;1016405;-63
2023/08/03 09:45:53;;;;;;;12.30;3.00;;;;;;;30.48;43.56;97799.37;67631;1281;1016383;-63
2023/08/03 09:48:56;;;;;;;8.20;2.50;;;;;;;30.48;43.61;97795.73;67644;1281;1016174;-63
2023/08/03 09:51:58;;;;;;;9.90;2.30;;;;;;;30.34;43.54;97770.85;67649;1281;1017151;-63
2023/08/03 09:55:00;;;;;;;11.20;2.60;;;;;;;30.32;43.47;97764.61;67659;1280;1016440;-63
2023/08/03 09:58:03;;;;;;;7.90;2.50;;;;;;;30.30;43.48;97762.46;67615;1281;1016038;-63
2023/08/03 10:01:05;;;;;;;10.20;2.50;;;;;;;30.18;43.76;97760.55;67621;1280;1016462;-63
2023/08/03 10:04:08;;;;;;;8.00;2.40;;;;;;;30.28;43.39;97761.98;67586;1280;1016249;-63
2023/08/03 10:07:10;;;;;;;10.80;2.50;;;;;;;30.56;43.03;97771.52;67630;1281;1016582;-63
2023/08/03 10:10:13;;;;;;;10.30;2.80;;;;;;;30.59;43.01;97779.94;67646;1281;1016268;-63
2023/08/03 10:13:15;;;;;;;8.20;2.50;;;;;;;30.58;43.17;97781.71;67660;1281;1016303;-63
2023/08/03 10:16:17;;;;;;;10.50;2.90;;;;;;;30.65;43.04;97793.46;67623;1281;1015763;-63
2023/08/03 10:19:20;;;;;;;14.80;3.20;;;;;;;30.55;43.13;97808.12;67597;1281;1016398;-63
2023/08/03 10:22:22;;;;;;;11.30;3.00;;;;;;;30.62;42.92;97804.88;67638;1281;1016488;-63
2023/08/03 10:25:25;;;;;;;12.00;3.00;;;;;;;30.62;42.78;97791.95;67640;1281;1016373;-63
2023/08/03 10:28:27;;;;;;;12.50;3.20;;;;;;;30.51;42.88;97793.95;67674;1281;1016448;-63
2023/08/03 10:31:29;;;;;;;13.30;2.90;;;;;;;30.54;42.90;97803.37;67639;1280;1016301;-63
2023/08/03 10:34:32;;;;;;;9.80;2.80;;;;;;;30.53;42.94;97824.33;67593;1281;1016228;-63
2023/08/03 10:37:34;;;;;;;13.50;3.00;;;;;;;30.57;42.80;97835.75;67587;1281;1016225;-63
2023/08/03 10:40:37;;;;;;;10.60;2.60;;;;;;;30.71;42.41;97836.89;67659;1281;1016488;-63
2023/08/03 10:43:39;;;;;;;11.60;3.00;;;;;;;30.78;42.17;97860.52;67648;1281;1018628;-63
2023/08/03 10:46:42;;;;;;;11.90;2.80;;;;;;;30.86;42.31;97875.15;67631;1281;1016393;-63
2023/08/03 10:49:44;;;;;;;10.30;2.70;;;;;;;30.96;42.56;97872.96;67588;1281;1016422;-63
2023/08/03 10:52:46;;;;;;;11.70;3.30;;;;;;;31.06;42.78;97846.27;67626;1281;1016726;-63
2023/08/03 10:55:50;;;;;;;12.90;3.00;;;;;;;31.14;42.71;97813.56;67651;1281;1016475;-63
2023/08/03 10:58:53;;;;;;;10.50;3.10;;;;;;;30.99;42.72;97809.12;67649;1280;1016265;-63
2023/08/03 11:01:55;;;;;;;15.50;4.30;;;;;;;30.96;42.51;97801.45;67632;1280;1016191;-63
2023/08/03 11:04:58;;;;;;;16.10;3.50;;;;;;;30.91;42.32;97768.73;67625;1280;1015886;-63
2023/08/03 11:08:00;;;;;;;9.80;2.90;;;;;;;30.66;42.57;97710.89;67595;1281;1016571;-63
2023/08/03 11:11:03;;;;;;;12.20;3.00;;;;;;;30.56;42.43;97704.22;67581;1281;1016817;-63
2023/08/03 11:14:05;;;;;;;5.40;2.30;;;;;;;30.38;42.80;97729.10;67630;1281;1018196;-63
2023/08/03 11:17:07;;;;;;;8.70;2.40;;;;;;;30.13;42.98;97773.55;67630;1281;1016432;-63
2023/08/03 11:20:12;;;;;;;12.00;2.70;;;;;;;30.11;42.74;97809.30;67642;1281;1016749;-63
2023/08/03 11:23:14;;;;;;;11.20;3.00;;;;;;;30.01;42.94;97854.98;67591;1281;1016081;-63
2023/08/03 11:26:17;;;;;;;15.50;3.70;;;;;;;29.94;43.02;97878.27;67615;1281;1016350;-63
2023/08/03 11:29:19;;;;;;;13.10;2.90;;;;;;;30.01;43.10;97898.79;67633;1280;1016466;-63
2023/08/03 11:32:22;;;;;;;13.30;2.70;;;;;;;30.00;43.03;97907.37;67652;1280;1016809;-63
2023/08/03 11:35:24;;;;;;;13.30;3.40;;;;;;;29.93;43.25;97906.36;67619;1281;1016737;-63
2023/08/03 11:38:26;;;;;;;14.50;3.60;;;;;;;29.99;43.13;97906.56;67602;1281;1016320;-63
2023/08/03 11:41:29;;;;;;;10.80;3.40;;;;;;;30.13;43.11;97897.53;67592;1281;1016436;-63
2023/08/03 11:44:31;;;;;;;10.30;2.90;;;;;;;30.39;42.90;97893.34;67592;1281;1016586;-63
2023/08/03 11:47:34;;;;;;;16.60;3.20;;;;;;;30.64;42.51;97896.45;67636;1281;1016467;-63
2023/08/03 11:50:36;;;;;;;12.40;2.90;;;;;;;30.84;42.20;97891.20;67651;1281;1016098;-63
2023/08/03 11:53:40;;;;;;;14.20;3.20;;;;;;;30.99;41.96;97894.18;67633;1281;1016513;-63
2023/08/03 11:56:43;;;;;;;12.40;3.00;;;;;;;30.97;41.97;97889.07;67593;1281;1016125;-63
2023/08/03 11:59:47;;;;;;;11.10;2.90;;;;;;;31.12;41.76;97877.27;67578;1281;1016326;-63
2023/08/03 12:02:49;;;;;;;9.20;2.60;;;;;;;31.34;41.37;97859.63;67615;1281;1016346;-63
2023/08/03 12:05:52;;;;;;;8.40;2.70;;;;;;;31.45;41.42;97877.15;67635;1281;1017082;-63
2023/08/03 12:08:55;;;;;;;7.00;2.60;;;;;;;31.34;41.35;97878.91;67651;1281;1016374;-63
2023/08/03 12:11:57;;;;;;;14.10;2.90;;;;;;;31.36;41.49;97864.84;67629;1281;1017606;-63
2023/08/03 12:14:59;;;;;;;9.70;2.60;;;;;;;31.47;41.13;97869.92;67600;1281;1016289;-63
2023/08/03 12:18:02;;;;;;;113.70;60.90;;;;;;;31.38;41.26;97865.30;67629;1281;1016488;-63
2023/08/03 12:21:04;;;;;;;76.50;43.50;;;;;;;31.72;40.87;97836.67;67643;1281;1016898;-63
2023/08/03 12:24:07;;;;;;;19.90;6.00;;;;;;;31.83;40.43;97803.19;67624;1281;1016764;-63
2023/08/03 12:27:09;;;;;;;11.00;2.80;;;;;;;31.68;40.60;97772.89;67646;1281;1017265;-63
2023/08/03 12:30:11;;;;;;;12.50;3.20;;;;;;;31.52;40.66;97831.06;67614;1281;1016454;-63
2023/08/03 12:33:14;;;;;;;13.40;3.30;;;;;;;31.46;40.63;97902.96;67627;1281;1016387;-63
2023/08/03 12:36:17;;;;;;;15.10;4.60;;;;;;;31.37;40.47;97894.12;67643;1281;1016308;-63
2023/08/03 12:39:20;;;;;;;13.70;3.80;;;;;;;31.09;40.85;97889.97;67589;1280;1016131;-63
2023/08/03 12:42:22;;;;;;;11.80;3.10;;;;;;;31.00;41.05;97886.95;67617;1280;1016730;-63
2023/08/03 12:45:25;;;;;;;14.60;4.70;;;;;;;30.87;41.07;97869.48;67632;1281;1016949;-63
2023/08/03 12:48:27;;;;;;;18.70;5.80;;;;;;;30.96;41.16;97849.63;67592;1280;1016429;-63
2023/08/03 12:51:30;;;;;;;16.40;3.80;;;;;;;31.02;41.21;97867.48;67624;1281;1017426;-63
2023/08/03 12:54:32;;;;;;;14.70;5.10;;;;;;;30.95;40.97;97886.83;67629;1280;1016166;-63
2023/08/03 12:57:34;;;;;;;11.60;3.00;;;;;;;31.00;40.92;97887.27;67604;1281;1016456;-63
2023/08/03 13:00:37;;;;;;;10.60;2.60;;;;;;;31.08;40.68;97880.47;67640;1281;1016482;-63
2023/08/03 13:03:39;;;;;;;11.60;3.30;;;;;;;31.08;40.85;97859.51;67604;1280;1016185;-63
2023/08/03 13:06:42;;;;;;;13.70;3.70;;;;;;;31.19;40.76;97834.91;67599;1281;1016048;-63
2023/08/03 13:09:44;;;;;;;14.90;3.50;;;;;;;31.25;40.84;97844.40;67631;1281;1016467;-63
2023/08/03 13:12:47;;;;;;;16.00;3.00;;;;;;;31.24;40.71;97873.97;67638;1281;1016445;-63
2023/08/03 13:15:49;;;;;;;11.60;3.00;;;;;;;31.13;40.50;97885.95;67638;1281;1016593;-63
2023/08/03 13:18:52;;;;;;;11.70;3.20;;;;;;;31.05;40.68;97879.88;67578;1281;1016332;-63
2023/08/03 13:21:55;;;;;;;13.00;3.00;;;;;;;30.97;40.98;97852.83;67624;1281;1016445;-64
2023/08/03 13:24:57;;;;;;;11.30;2.70;;;;;;;30.99;41.00;97850.16;67622;1281;1017577;-63
2023/08/03 13:27:59;;;;;;;9.60;2.60;;;;;;;31.05;40.76;97865.96;67606;1281;1016452;-63
2023/08/03 13:31:02;;;;;;;13.00;3.30;;;;;;;30.81;41.24;97879.03;67570;1281;1016171;-63
2023/08/03 13:34:04;;;;;;;18.80;5.40;;;;;;;30.80;41.27;97865.34;67612;1281;1015846;-63
2023/08/03 13:37:07;;;;;;;13.40;3.20;;;;;;;30.80;41.23;97860.88;67616;1281;1016425;-63
2023/08/03 13:40:10;;;;;;;10.30;2.90;;;;;;;31.13;40.86;97898.73;67600;1281;1016231;-63
2023/08/03 13:43:12;;;;;;;11.70;3.10;;;;;;;31.25;40.61;97885.14;67580;1281;1016426;-63
2023/08/03 13:46:15;;;;;;;20.40;5.80;;;;;;;31.23;40.64;97852.98;67652;1281;1018909;-63
2023/08/03 13:49:18;;;;;;;20.40;6.10;;;;;;;31.19;40.43;97825.42;67621;1281;1016361;-63
2023/08/03 13:52:21;;;;;;;10.20;2.90;;;;;;;31.13;40.74;97855.52;67636;1281;1016571;-63